Time;durP1;ratioP1;P1;durP2;ratioP2;P2;SDS_P1;SDS_P2;PMS_P1;PMS_P2;Temp;Humidity;BMP_temperature;BMP_pressure;BME280_temperature;BME280_humidity;BME280_pressure;Samples;Min_cycle;Max_cycle;Signal;HPM_P1;HPM_P2
2023/12/01 00:02:15;;;;;;;23.00;13.70;;;;;;;-0.46;100.00;100897.94;105770;1254;71525;-78
2023/12/01 00:04:43;;;;;;;20.00;14.10;;;;;;;-0.43;100.00;100886.05;105797;1254;60536;-79
2023/12/01 00:07:11;;;;;;;20.10;12.90;;;;;;;-0.39;100.00;100873.31;105718;1256;60579;-77
2023/12/01 00:09:39;;;;;;;19.60;12.60;;;;;;;-0.37;100.00;100858.86;105827;1257;72452;-79
2023/12/01 00:12:06;;;;;;;19.60;13.00;;;;;;;-0.33;100.00;100853.31;105844;1254;62294;-79
2023/12/01 00:14:34;;;;;;;20.80;12.80;;;;;;;-0.28;100.00;100847.08;105842;1254;71264;-79
2023/12/01 00:17:02;;;;;;;21.40;13.20;;;;;;;-0.24;100.00;100851.99;105793;1253;60818;-81
2023/12/01 00:19:29;;;;;;;18.90;12.00;;;;;;;-0.20;100.00;100838.20;105771;1256;60438;-78
2023/12/01 00:21:57;;;;;;;19.90;10.70;;;;;;;-0.16;100.00;100831.64;105756;1257;72600;-79
2023/12/01 00:24:25;;;;;;;17.90;10.80;;;;;;;-0.13;100.00;100801.36;105842;1255;63852;-79
2023/12/01 00:26:52;;;;;;;20.10;11.20;;;;;;;-0.10;100.00;100787.05;105825;1256;72175;-79
2023/12/01 00:29:20;;;;;;;22.20;12.80;;;;;;;-0.07;100.00;100775.85;105696;1254;60520;-78
2023/12/01 00:31:48;;;;;;;18.20;11.00;;;;;;;-0.05;100.00;100757.08;105815;1257;60441;-79
2023/12/01 00:35:11;;;;;;;17.00;11.70;;;;;;;-0.01;100.00;100762.00;103402;1294;600241;-77
2023/12/01 00:37:39;;;;;;;18.20;11.60;;;;;;;-0.01;100.00;100753.94;105695;1266;59321;-80
2023/12/01 00:40:10;;;;;;;15.20;10.30;;;;;;;-0.01;100.00;100736.23;105223;1271;59255;-78
2023/12/01 00:42:38;;;;;;;18.40;9.60;;;;;;;0.01;100.00;100753.40;108407;1269;70670;-78
2023/12/01 00:45:06;;;;;;;16.20;11.50;;;;;;;0.00;100.00;100760.63;107408;1266;63069;-78
2023/12/01 00:47:34;;;;;;;20.00;11.70;;;;;;;0.01;100.00;100767.50;104844;1271;70229;-80
2023/12/01 00:50:02;;;;;;;16.40;11.00;;;;;;;0.01;100.00;100766.45;104908;1263;220671;-78
2023/12/01 00:52:31;;;;;;;19.50;11.30;;;;;;;0.02;100.00;100765.23;105128;1263;59251;-77
2023/12/01 00:54:59;;;;;;;16.90;11.00;;;;;;;0.02;100.00;100760.24;105040;1267;70175;-79
2023/12/01 00:57:26;;;;;;;16.60;11.00;;;;;;;0.03;100.00;100760.76;105052;1266;62470;-78
2023/12/01 00:59:55;;;;;;;18.60;12.30;;;;;;;0.04;100.00;100755.07;105028;1266;71487;-79
2023/12/01 01:02:23;;;;;;;22.30;12.50;;;;;;;0.04;100.00;100748.38;104943;1268;59846;-79
2023/12/01 01:04:50;;;;;;;24.30;12.60;;;;;;;0.04;100.00;100737.88;104892;1264;60020;-80
2023/12/01 01:07:19;;;;;;;21.60;12.20;;;;;;;0.04;100.00;100718.45;105584;1256;73117;-79
2023/12/01 01:09:46;;;;;;;21.90;12.40;;;;;;;0.05;100.00;100713.97;105407;1259;63519;-79
2023/12/01 01:12:15;;;;;;;19.40;12.40;;;;;;;0.05;100.00;100697.14;105350;1261;72117;-79
2023/12/01 01:14:42;;;;;;;21.50;13.00;;;;;;;0.05;100.00;100689.41;105423;1262;60910;-79
2023/12/01 01:17:10;;;;;;;21.00;12.90;;;;;;;0.07;100.00;100681.81;105419;1261;60159;-80
2023/12/01 01:19:37;;;;;;;24.20;14.10;;;;;;;0.08;100.00;100669.23;105281;1256;72897;-79
2023/12/01 01:22:05;;;;;;;29.20;14.40;;;;;;;0.11;100.00;100664.73;105535;1257;62857;-77
2023/12/01 01:24:33;;;;;;;27.50;15.20;;;;;;;0.16;100.00;100664.13;107498;1256;72676;-77
2023/12/01 01:27:01;;;;;;;28.00;16.70;;;;;;;0.20;100.00;100657.86;105363;1257;59806;-81
2023/12/01 01:29:28;;;;;;;30.90;16.10;;;;;;;0.24;100.00;100663.65;105414;1257;60164;-77
2023/12/01 01:31:56;;;;;;;30.10;17.40;;;;;;;0.27;100.00;100670.47;105272;1256;73761;-79
2023/12/01 01:34:23;;;;;;;31.60;16.50;;;;;;;0.30;100.00;100684.17;105656;1256;62424;-78
2023/12/01 01:36:51;;;;;;;25.40;15.90;;;;;;;0.35;100.00;100693.04;105454;1257;71482;-79
2023/12/01 01:39:19;;;;;;;28.20;15.90;;;;;;;0.39;100.00;100701.56;105445;1256;60982;-78
2023/12/01 01:41:47;;;;;;;32.10;16.80;;;;;;;0.45;100.00;100698.90;105458;1260;59648;-80
2023/12/01 01:44:15;;;;;;;30.00;18.20;;;;;;;0.49;100.00;100688.86;105529;1255;73111;-78
2023/12/01 01:46:43;;;;;;;25.50;15.70;;;;;;;0.54;100.00;100680.34;105479;1257;63624;-82
2023/12/01 01:49:10;;;;;;;28.70;16.30;;;;;;;0.58;100.00;100677.51;105305;1261;72681;-79
2023/12/01 01:51:38;;;;;;;26.10;16.70;;;;;;;0.62;100.00;100679.15;105612;1261;60842;-80
2023/12/01 01:54:06;;;;;;;24.80;15.20;;;;;;;0.66;100.00;100683.56;105597;1257;59756;-78
2023/12/01 01:56:33;;;;;;;29.70;16.90;;;;;;;0.70;100.00;100682.80;105461;1256;71776;-80
2023/12/01 01:59:01;;;;;;;26.90;15.40;;;;;;;0.74;100.00;100668.27;105512;1257;63871;-79
2023/12/01 02:01:29;;;;;;;28.20;16.10;;;;;;;0.78;100.00;100654.77;105626;1255;71729;-77
2023/12/01 02:03:57;;;;;;;27.10;14.70;;;;;;;0.81;100.00;100650.94;108149;1256;60097;-77
2023/12/01 02:06:30;;;;;;;27.10;15.50;;;;;;;0.86;100.00;100618.14;106237;1255;59782;-77
2023/12/01 02:09:00;;;;;;;24.70;15.00;;;;;;;0.88;100.00;100606.57;106068;1260;73037;-77
2023/12/01 02:11:28;;;;;;;30.40;15.70;;;;;;;0.92;100.00;100600.63;106302;1256;63178;-78
2023/12/01 02:13:59;;;;;;;27.00;15.30;;;;;;;0.97;100.00;100596.06;106286;1256;71266;-82
2023/12/01 02:16:28;;;;;;;21.80;14.00;;;;;;;1.01;100.00;100578.76;105433;1256;59729;-79
2023/12/01 02:18:56;;;;;;;20.10;14.30;;;;;;;1.06;100.00;100590.19;105442;1256;59981;-79
2023/12/01 02:21:24;;;;;;;22.10;14.10;;;;;;;1.09;100.00;100590.63;108316;1255;73032;-76
2023/12/01 02:23:54;;;;;;;23.80;12.80;;;;;;;1.11;100.00;100579.06;106524;1260;62808;-76
2023/12/01 02:26:22;;;;;;;18.70;12.60;;;;;;;1.15;100.00;100576.06;105967;1257;72651;-78
2023/12/01 02:28:50;;;;;;;18.20;12.00;;;;;;;1.19;100.00;100589.91;105464;1260;59687;-81
2023/12/01 02:31:17;;;;;;;17.60;12.30;;;;;;;1.22;100.00;100604.30;105590;1261;59640;-82
2023/12/01 02:33:45;;;;;;;20.10;11.10;;;;;;;1.26;100.00;100587.86;105447;1260;73109;-80
2023/12/01 02:36:14;;;;;;;17.80;11.60;;;;;;;1.31;100.00;100578.30;105425;1255;62501;-80
2023/12/01 02:38:41;;;;;;;20.90;12.30;;;;;;;1.34;100.00;100594.90;105634;1256;72662;-76
2023/12/01 02:41:09;;;;;;;15.20;11.50;;;;;;;1.38;100.00;100603.42;105612;1261;60873;-79
2023/12/01 02:43:37;;;;;;;15.40;11.20;;;;;;;1.41;100.00;100598.53;105564;1260;59625;-80
2023/12/01 02:46:05;;;;;;;15.60;11.60;;;;;;;1.45;100.00;100593.29;105496;1260;73151;-78
2023/12/01 02:48:33;;;;;;;14.30;10.80;;;;;;;1.49;100.00;100587.17;105449;1254;62403;-81
2023/12/01 02:51:01;;;;;;;15.90;11.40;;;;;;;1.51;100.00;100587.27;105742;1253;71958;-80
2023/12/01 02:53:28;;;;;;;15.90;11.00;;;;;;;1.54;100.00;100575.84;105669;1254;60924;-78
2023/12/01 02:55:56;;;;;;;15.30;12.50;;;;;;;1.56;100.00;100564.96;105698;1254;59663;-80
2023/12/01 02:58:23;;;;;;;16.60;11.80;;;;;;;1.58;100.00;100562.13;105949;1253;73172;-78
2023/12/01 03:00:51;;;;;;;17.10;13.20;;;;;;;1.60;100.00;100557.45;107507;1256;63259;-78
2023/12/01 03:03:20;;;;;;;20.30;12.60;;;;;;;1.62;100.00;100552.23;105824;1259;70659;-79
2023/12/01 03:05:47;;;;;;;19.40;13.30;;;;;;;1.64;100.00;100544.58;105601;1259;59768;-80
2023/12/01 03:08:15;;;;;;;19.20;13.50;;;;;;;1.66;100.00;100546.44;105840;1257;59925;-80
2023/12/01 03:10:42;;;;;;;17.20;13.20;;;;;;;1.67;100.00;100535.56;105841;1253;73051;-80
2023/12/01 03:13:10;;;;;;;22.20;12.80;;;;;;;1.69;100.00;100522.77;105853;1254;62402;-79
2023/12/01 03:15:40;;;;;;;23.70;13.80;;;;;;;1.71;100.00;100516.84;105635;1254;72516;-79
2023/12/01 03:18:08;;;;;;;21.80;14.20;;;;;;;1.74;100.00;100506.79;105695;1256;60175;-81
2023/12/01 03:20:37;;;;;;;18.70;13.90;;;;;;;1.76;100.00;100491.40;105812;1258;59730;-80
2023/12/01 03:23:04;;;;;;;18.80;13.90;;;;;;;1.78;100.00;100488.59;105535;1253;72061;-81
2023/12/01 03:25:33;;;;;;;22.90;15.40;;;;;;;1.80;100.00;100485.77;106042;1258;63565;-78
2023/12/01 03:28:00;;;;;;;19.40;14.50;;;;;;;1.82;100.00;100468.33;105765;1253;73418;-79
2023/12/01 03:30:28;;;;;;;22.60;14.60;;;;;;;1.83;100.00;100460.16;105556;1253;59762;-79
2023/12/01 03:32:56;;;;;;;21.30;15.40;;;;;;;1.85;100.00;100452.71;107115;1253;59621;-78
2023/12/01 03:35:24;;;;;;;22.70;15.00;;;;;;;1.86;100.00;100453.55;109194;1251;71800;-78
2023/12/01 03:37:56;;;;;;;23.90;15.00;;;;;;;1.87;100.00;100455.95;107042;1253;62571;-80
2023/12/01 03:40:25;;;;;;;21.90;15.30;;;;;;;1.89;100.00;100440.23;105964;1256;72702;-79
2023/12/01 03:42:53;;;;;;;23.20;15.70;;;;;;;1.91;100.00;100436.02;106039;1257;60813;-77
2023/12/01 03:45:21;;;;;;;24.60;18.20;;;;;;;1.94;100.00;100428.19;105802;1252;59596;-79
2023/12/01 03:47:50;;;;;;;27.40;17.90;;;;;;;1.97;100.00;100422.60;106236;1256;73095;-79
2023/12/01 03:50:19;;;;;;;29.20;19.20;;;;;;;1.98;100.00;100418.91;106390;1253;62958;-81
2023/12/01 03:52:49;;;;;;;32.70;20.80;;;;;;;2.00;100.00;100432.48;105819;1253;71664;-77
2023/12/01 03:55:17;;;;;;;28.80;20.00;;;;;;;2.00;100.00;100440.59;105838;1254;59816;-77
2023/12/01 03:57:45;;;;;;;26.60;16.40;;;;;;;1.99;100.00;100424.77;105659;1258;59624;-81
2023/12/01 04:00:17;;;;;;;32.70;20.00;;;;;;;1.98;100.00;100394.95;105786;1253;71840;-77
2023/12/01 04:02:47;;;;;;;29.70;19.40;;;;;;;1.99;100.00;100384.95;106318;1254;61306;-77
2023/12/01 04:05:19;;;;;;;31.40;19.70;;;;;;;2.00;100.00;100382.14;105859;1257;72503;-80
2023/12/01 04:07:51;;;;;;;37.30;22.00;;;;;;;2.01;100.00;100393.15;105655;1258;61031;-78
2023/12/01 04:10:27;;;;;;;29.20;21.20;;;;;;;2.01;100.00;100391.77;105862;1257;59637;-80
2023/12/01 04:12:56;;;;;;;33.10;20.70;;;;;;;2.01;100.00;100394.86;105856;1254;71900;-78
2023/12/01 04:15:25;;;;;;;32.00;19.60;;;;;;;2.02;100.00;100395.20;105857;1259;62689;-76
2023/12/01 04:17:54;;;;;;;33.40;20.80;;;;;;;2.01;100.00;100385.73;105804;1259;72531;-81
2023/12/01 04:20:25;;;;;;;32.20;20.20;;;;;;;2.02;100.00;100377.44;105760;1253;59611;-77
2023/12/01 04:22:57;;;;;;;33.40;20.80;;;;;;;2.04;100.00;100375.30;105799;1258;59621;-76
2023/12/01 04:25:25;;;;;;;34.00;22.60;;;;;;;2.05;100.00;100364.94;105965;1254;72946;-76
2023/12/01 04:27:53;;;;;;;36.20;21.50;;;;;;;2.08;100.00;100354.00;105720;1253;62296;-78
2023/12/01 04:30:23;;;;;;;31.50;21.20;;;;;;;2.10;100.00;100344.64;105793;1257;71451;-77
2023/12/01 04:32:53;;;;;;;28.50;19.30;;;;;;;2.12;100.00;100339.92;105861;1257;59686;-79
2023/12/01 04:35:28;;;;;;;33.60;21.30;;;;;;;2.14;100.00;100331.76;105948;1257;59538;-75
2023/12/01 04:37:56;;;;;;;31.20;20.80;;;;;;;2.15;100.00;100326.88;106276;1257;73124;-80
2023/12/01 04:40:26;;;;;;;27.40;18.90;;;;;;;2.16;100.00;100331.16;105739;1253;62462;-77
2023/12/01 04:42:55;;;;;;;32.10;20.90;;;;;;;2.17;100.00;100338.20;105768;1257;72988;-76
2023/12/01 04:45:25;;;;;;;29.00;18.70;;;;;;;2.18;100.00;100339.38;105813;1257;60443;-78
2023/12/01 04:47:54;;;;;;;27.60;19.50;;;;;;;2.20;100.00;100340.71;105746;1259;60361;-78
2023/12/01 04:50:26;;;;;;;26.30;19.00;;;;;;;2.20;100.00;100328.97;105718;1254;73835;-77
2023/12/01 04:52:55;;;;;;;26.40;17.50;;;;;;;2.22;100.00;100325.81;105756;1258;62269;-78
2023/12/01 04:55:25;;;;;;;23.60;15.80;;;;;;;2.24;100.00;100323.50;105770;1254;73142;-77
2023/12/01 04:57:54;;;;;;;20.00;14.60;;;;;;;2.26;100.00;100317.23;105783;1258;60889;-76
2023/12/01 05:00:25;;;;;;;20.10;14.10;;;;;;;2.27;100.00;100299.77;105907;1259;60420;-78
2023/12/01 05:02:55;;;;;;;16.60;12.60;;;;;;;2.31;100.00;100293.79;105716;1254;72883;-79
2023/12/01 05:05:24;;;;;;;17.40;12.10;;;;;;;2.33;100.00;100298.39;105729;1258;62439;-80
2023/12/01 05:07:56;;;;;;;16.20;10.70;;;;;;;2.34;100.00;100298.89;105734;1259;72680;-80
2023/12/01 05:10:29;;;;;;;15.70;12.20;;;;;;;2.35;100.00;100291.44;105849;1257;60552;-78
2023/12/01 05:13:01;;;;;;;15.40;11.30;;;;;;;2.36;100.00;100298.80;105733;1257;61017;-79
2023/12/01 05:15:30;;;;;;;16.40;11.30;;;;;;;2.37;100.00;100297.06;105681;1253;72883;-79
2023/12/01 05:17:59;;;;;;;13.80;10.60;;;;;;;2.39;100.00;100295.27;105799;1253;63421;-78
2023/12/01 05:20:27;;;;;;;14.30;10.50;;;;;;;2.41;100.00;100305.20;105772;1257;72612;-79
2023/12/01 05:23:00;;;;;;;14.90;10.70;;;;;;;2.43;100.00;100305.16;105773;1257;60460;-80
2023/12/01 05:25:32;;;;;;;12.30;9.60;;;;;;;2.44;100.00;100310.27;106189;1257;60420;-77
2023/12/01 05:28:03;;;;;;;13.50;9.90;;;;;;;2.45;100.00;100287.48;105768;1259;71789;-77
2023/12/01 05:30:35;;;;;;;11.20;8.70;;;;;;;2.46;100.00;100266.58;105769;1253;62435;-77
2023/12/01 05:33:09;;;;;;;11.80;9.40;;;;;;;2.47;100.00;100259.83;105564;1260;72042;-79
2023/12/01 05:35:38;;;;;;;13.60;10.50;;;;;;;2.48;100.00;100256.34;105752;1257;60623;-79
2023/12/01 05:38:06;;;;;;;14.60;9.90;;;;;;;2.49;100.00;100242.16;105789;1254;60467;-79
2023/12/01 05:40:36;;;;;;;16.80;12.30;;;;;;;2.53;100.00;100244.13;105779;1258;73831;-79
2023/12/01 05:43:06;;;;;;;15.30;10.60;;;;;;;2.56;100.00;100252.66;106803;1257;62284;-76
2023/12/01 05:45:35;;;;;;;15.10;10.30;;;;;;;2.58;100.00;100251.02;108258;1256;71472;-78
2023/12/01 05:48:08;;;;;;;15.00;11.80;;;;;;;2.61;100.00;100251.77;106445;1263;60856;-78
2023/12/01 05:50:37;;;;;;;16.80;11.60;;;;;;;2.64;100.00;100237.88;106046;1257;60404;-79
2023/12/01 05:53:08;;;;;;;13.50;11.00;;;;;;;2.68;100.00;100217.19;105808;1257;73814;-78
2023/12/01 05:55:36;;;;;;;13.50;11.60;;;;;;;2.73;100.00;100212.20;105795;1257;63869;-78
2023/12/01 05:58:12;;;;;;;15.30;11.30;;;;;;;2.76;100.00;100200.16;105872;1257;72680;-81
2023/12/01 06:00:41;;;;;;;11.90;10.10;;;;;;;2.80;100.00;100195.38;105790;1257;60495;-76
2023/12/01 06:03:10;;;;;;;13.70;10.80;;;;;;;2.82;100.00;100189.61;107312;1254;60471;-76
2023/12/01 06:05:39;;;;;;;16.20;11.70;;;;;;;2.84;100.00;100183.15;109636;1254;73059;-79
2023/12/01 06:08:09;;;;;;;14.80;11.90;;;;;;;2.86;100.00;100178.41;109576;1252;63575;-79
2023/12/01 06:10:39;;;;;;;14.20;11.40;;;;;;;2.90;100.00;100168.45;109627;1253;71918;-77
2023/12/01 06:13:06;;;;;;;16.20;12.30;;;;;;;2.93;100.00;100170.06;109529;1255;60124;-78
2023/12/01 06:15:34;;;;;;;16.80;12.00;;;;;;;2.97;100.00;100160.25;109579;1254;60047;-78
2023/12/01 06:18:02;;;;;;;15.60;12.10;;;;;;;3.00;100.00;100159.82;109605;1252;73557;-79
2023/12/01 06:20:34;;;;;;;17.60;13.00;;;;;;;3.04;100.00;100167.27;109563;1253;61705;-78
2023/12/01 06:23:06;;;;;;;17.40;12.70;;;;;;;3.07;100.00;100167.65;109574;1253;71413;-77
2023/12/01 06:25:36;;;;;;;16.40;13.70;;;;;;;3.09;100.00;100148.74;109715;1254;60912;-75
2023/12/01 06:28:04;;;;;;;14.70;12.80;;;;;;;3.11;100.00;100143.86;109714;1252;58819;-77
2023/12/01 06:30:33;;;;;;;18.00;13.60;;;;;;;3.14;100.00;100138.56;109546;1254;74433;-77
2023/12/01 06:33:03;;;;;;;17.40;13.70;;;;;;;3.18;100.00;100136.88;109442;1253;63595;-76
2023/12/01 06:35:31;;;;;;;17.50;12.60;;;;;;;3.20;100.00;100126.77;109545;1253;71896;-79
2023/12/01 06:37:58;;;;;;;14.60;12.00;;;;;;;3.22;100.00;100113.71;109537;1254;60912;-78
2023/12/01 06:40:26;;;;;;;15.40;13.10;;;;;;;3.27;100.00;100112.86;109598;1252;58975;-76
2023/12/01 06:42:54;;;;;;;16.20;12.20;;;;;;;3.31;100.00;100105.64;109574;1252;73850;-77
2023/12/01 06:45:26;;;;;;;16.80;13.10;;;;;;;3.36;100.00;100098.00;109536;1255;63737;-77
2023/12/01 06:47:58;;;;;;;20.00;14.30;;;;;;;3.40;100.00;100080.77;109569;1254;72695;-77
2023/12/01 06:50:28;;;;;;;17.20;12.90;;;;;;;3.42;100.00;100072.87;109580;1253;59665;-76
2023/12/01 06:53:00;;;;;;;16.30;13.70;;;;;;;3.43;100.00;100072.00;109654;1254;58807;-77
2023/12/01 06:55:28;;;;;;;16.20;11.30;;;;;;;3.42;100.00;100065.44;109607;1252;74992;-76
2023/12/01 06:57:56;;;;;;;15.90;10.40;;;;;;;3.45;100.00;100071.57;109647;1252;62456;-80
2023/12/01 07:00:29;;;;;;;14.70;10.20;;;;;;;3.44;100.00;100065.55;109598;1253;73164;-79
2023/12/01 07:03:00;;;;;;;14.00;10.30;;;;;;;3.43;100.00;100056.79;109565;1254;60916;-79
2023/12/01 07:05:29;;;;;;;12.80;10.40;;;;;;;3.41;100.00;100050.12;109558;1253;59137;-78
2023/12/01 07:07:57;;;;;;;13.40;11.00;;;;;;;3.40;100.00;100048.44;109552;1253;74052;-77
2023/12/01 07:10:25;;;;;;;13.20;10.30;;;;;;;3.41;100.00;100045.97;109438;1253;62750;-77
2023/12/01 07:12:53;;;;;;;15.50;10.60;;;;;;;3.41;100.00;100046.64;109550;1254;72778;-79
2023/12/01 07:15:22;;;;;;;13.90;10.10;;;;;;;3.41;100.00;100035.94;109545;1254;62851;-79
2023/12/01 07:17:51;;;;;;;13.70;10.30;;;;;;;3.41;100.00;100032.14;109422;1255;60148;-79
2023/12/01 07:20:19;;;;;;;13.20;9.90;;;;;;;3.42;100.00;100025.53;109568;1253;72806;-77
2023/12/01 07:22:49;;;;;;;11.60;9.60;;;;;;;3.43;100.00;100018.26;109538;1253;62106;-80
2023/12/01 07:25:23;;;;;;;11.10;9.60;;;;;;;3.45;100.00;100014.20;109566;1254;72791;-79
2023/12/01 07:27:58;;;;;;;11.80;8.70;;;;;;;3.47;100.00;100013.78;109542;1254;59425;-76
2023/12/01 07:30:29;;;;;;;12.40;11.10;;;;;;;3.49;100.00;100012.47;109580;1253;59846;-78
2023/12/01 07:32:59;;;;;;;11.90;9.80;;;;;;;3.52;100.00;100011.16;109552;1253;74330;-77
2023/12/01 07:35:28;;;;;;;21.50;14.20;;;;;;;3.55;100.00;100014.16;109559;1254;62562;-74
2023/12/01 07:37:55;;;;;;;24.80;16.30;;;;;;;3.57;100.00;100012.50;109623;1254;71426;-77
2023/12/01 07:40:23;;;;;;;15.30;11.80;;;;;;;3.59;100.00;99996.34;109468;1254;61907;-76
2023/12/01 07:42:56;;;;;;;18.40;13.50;;;;;;;3.62;100.00;99998.83;109415;1258;58545;-76
2023/12/01 07:45:25;;;;;;;18.30;13.90;;;;;;;3.67;100.00;99996.55;109348;1254;73918;-78
2023/12/01 07:47:54;;;;;;;17.40;14.60;;;;;;;3.71;100.00;99990.31;109375;1254;62383;-79
2023/12/01 07:50:25;;;;;;;21.60;14.80;;;;;;;3.75;100.00;99971.48;109390;1254;72344;-79
2023/12/01 07:52:55;;;;;;;18.90;14.90;;;;;;;3.80;100.00;99971.27;109227;1258;59822;-79
2023/12/01 07:55:23;;;;;;;22.10;15.80;;;;;;;3.86;100.00;99968.10;109385;1259;58787;-80
2023/12/01 07:57:51;;;;;;;21.10;15.70;;;;;;;3.90;100.00;99967.53;109222;1254;73127;-79
2023/12/01 08:00:19;;;;;;;19.60;14.00;;;;;;;3.96;100.00;99957.80;109411;1253;63836;-80
2023/12/01 08:02:47;;;;;;;18.20;11.80;;;;;;;4.02;100.00;99958.89;109362;1254;74869;-80
2023/12/01 08:05:15;;;;;;;17.10;13.10;;;;;;;4.09;100.00;99943.39;109352;1254;60860;-80
2023/12/01 08:07:46;;;;;;;17.70;12.40;;;;;;;4.14;100.00;99928.10;109385;1254;60052;-81
2023/12/01 08:10:17;;;;;;;18.40;11.90;;;;;;;4.20;100.00;99924.75;109396;1254;74011;-79
2023/12/01 08:12:47;;;;;;;14.40;10.80;;;;;;;4.25;100.00;99916.02;109370;1254;63694;-79
2023/12/01 08:15:16;;;;;;;15.70;11.60;;;;;;;4.32;100.00;99906.70;109375;1254;71802;-80
2023/12/01 08:17:44;;;;;;;12.20;9.10;;;;;;;4.39;100.00;99892.54;109381;1254;60905;-79
2023/12/01 08:20:12;;;;;;;18.70;11.20;;;;;;;4.45;100.00;99890.36;109436;1254;58952;-79
2023/12/01 08:22:43;;;;;;;12.00;8.80;;;;;;;4.51;100.00;99892.33;109211;1254;73891;-80
2023/12/01 08:25:12;;;;;;;12.90;10.00;;;;;;;4.55;100.00;99887.29;109407;1254;63685;-79
2023/12/01 08:27:40;;;;;;;18.10;10.80;;;;;;;4.59;100.00;99877.45;109360;1254;72781;-78
2023/12/01 08:30:08;;;;;;;17.60;12.90;;;;;;;4.59;100.00;99879.32;109358;1254;61008;-79
2023/12/01 08:32:44;;;;;;;13.70;10.50;;;;;;;4.61;100.00;99870.07;109348;1254;60050;-80
2023/12/01 08:35:15;;;;;;;14.60;9.90;;;;;;;4.64;100.00;99880.33;109359;1254;72649;-78
2023/12/01 08:37:44;;;;;;;13.80;10.20;;;;;;;4.67;100.00;99879.48;109410;1254;63810;-78
2023/12/01 08:40:11;;;;;;;15.80;11.80;;;;;;;4.70;100.00;99876.55;109382;1254;72441;-79
2023/12/01 08:42:41;;;;;;;12.50;7.90;;;;;;;4.74;100.00;99864.24;109345;1254;60003;-78
2023/12/01 08:45:10;;;;;;;14.10;9.40;;;;;;;4.77;100.00;99858.89;109381;1254;60043;-79
2023/12/01 08:47:38;;;;;;;14.70;9.30;;;;;;;4.82;100.00;99846.56;109394;1253;73104;-78
2023/12/01 08:50:06;;;;;;;11.30;8.50;;;;;;;4.86;100.00;99839.59;109384;1254;63818;-78
2023/12/01 08:52:38;;;;;;;15.40;11.00;;;;;;;4.91;100.00;99833.48;109259;1255;72751;-78
2023/12/01 08:55:06;;;;;;;14.40;9.50;;;;;;;4.95;100.00;99830.69;109362;1254;59131;-77
2023/12/01 08:57:34;;;;;;;12.70;8.70;;;;;;;4.97;100.00;99824.69;109418;1254;60134;-78
2023/12/01 09:00:03;;;;;;;11.40;8.90;;;;;;;4.98;100.00;99831.89;109374;1254;73262;-79
2023/12/01 09:02:30;;;;;;;13.30;8.90;;;;;;;5.00;100.00;99817.79;109381;1254;62580;-81
2023/12/01 09:04:58;;;;;;;10.10;7.40;;;;;;;5.00;100.00;99812.23;109238;1254;72785;-79
2023/12/01 09:07:26;;;;;;;16.10;11.00;;;;;;;5.01;100.00;99816.54;109206;1254;60696;-77
2023/12/01 09:09:58;;;;;;;14.90;9.40;;;;;;;5.02;100.00;99800.02;109372;1254;60057;-78
2023/12/01 09:12:26;;;;;;;15.40;10.70;;;;;;;5.04;100.00;99801.48;109291;1254;72432;-78
2023/12/01 09:14:55;;;;;;;15.40;10.00;;;;;;;5.05;100.00;99802.80;109422;1254;62958;-76
2023/12/01 09:17:23;;;;;;;12.60;8.50;;;;;;;5.07;100.00;99793.50;109563;1254;71741;-79
2023/12/01 09:19:51;;;;;;;10.10;8.30;;;;;;;5.09;100.00;99788.20;109537;1253;60751;-77
2023/12/01 09:22:18;;;;;;;13.60;9.40;;;;;;;5.11;100.00;99781.01;109471;1254;60076;-77
2023/12/01 09:24:46;;;;;;;10.40;7.90;;;;;;;5.13;100.00;99772.61;109350;1254;72546;-77
2023/12/01 09:27:17;;;;;;;12.60;8.20;;;;;;;5.15;100.00;99771.65;109429;1254;62212;-77
2023/12/01 09:29:45;;;;;;;12.90;7.70;;;;;;;5.17;100.00;99771.86;109401;1254;74556;-77
2023/12/01 09:32:14;;;;;;;13.00;8.90;;;;;;;5.20;100.00;99772.79;109350;1254;61783;-79
2023/12/01 09:34:47;;;;;;;14.80;9.70;;;;;;;5.22;100.00;99764.02;109373;1254;58613;-79
2023/12/01 09:37:15;;;;;;;10.70;7.80;;;;;;;5.23;100.00;99761.17;109357;1254;74792;-79
2023/12/01 09:39:42;;;;;;;10.20;7.40;;;;;;;5.25;100.00;99761.61;109357;1253;63634;-77
2023/12/01 09:42:12;;;;;;;12.60;8.60;;;;;;;5.28;100.00;99756.92;109343;1257;73745;-78
2023/12/01 09:44:40;;;;;;;11.80;8.10;;;;;;;5.32;100.00;99763.47;109423;1254;59862;-77
2023/12/01 09:47:10;;;;;;;16.20;8.90;;;;;;;5.36;100.00;99744.04;109386;1254;59817;-77
2023/12/01 09:49:38;;;;;;;15.40;9.60;;;;;;;5.40;100.00;99744.70;109383;1254;73733;-78
2023/12/01 09:52:05;;;;;;;10.80;7.70;;;;;;;5.44;100.00;99740.02;109202;1254;65929;-80
2023/12/01 09:54:33;;;;;;;12.20;8.00;;;;;;;5.45;100.00;99742.19;109346;1254;73670;-77
2023/12/01 09:57:06;;;;;;;11.20;7.40;;;;;;;5.49;100.00;99745.45;109367;1254;59236;-83
2023/12/01 09:59:38;;;;;;;11.50;8.30;;;;;;;5.51;100.00;99736.98;109404;1257;61036;-78
2023/12/01 10:02:05;;;;;;;15.10;8.20;;;;;;;5.55;100.00;99728.64;109364;1254;75838;-82
2023/12/01 10:04:34;;;;;;;13.40;9.90;;;;;;;5.58;100.00;99713.94;109414;1253;64107;-76
2023/12/01 10:07:03;;;;;;;12.50;9.40;;;;;;;5.61;100.00;99718.23;109389;1254;74125;-76
2023/12/01 10:09:35;;;;;;;10.90;7.60;;;;;;;5.66;100.00;99714.89;109375;1254;59619;-77
2023/12/01 10:12:09;;;;;;;13.60;8.00;;;;;;;5.72;100.00;99712.66;109399;1254;60010;-78
2023/12/01 10:14:38;;;;;;;12.90;8.20;;;;;;;5.76;100.00;99714.48;109395;1253;74146;-78
2023/12/01 10:17:07;;;;;;;12.80;8.60;;;;;;;5.81;100.00;99704.88;109386;1254;62230;-78
2023/12/01 10:19:44;;;;;;;11.30;7.50;;;;;;;5.85;100.00;99700.48;109354;1254;74617;-79
2023/12/01 10:22:12;;;;;;;10.40;7.00;;;;;;;5.90;100.00;99703.86;109417;1254;60903;-79
2023/12/01 10:24:40;;;;;;;14.30;7.40;;;;;;;5.94;100.00;99691.16;109392;1254;59909;-77
2023/12/01 10:27:08;;;;;;;12.40;8.40;;;;;;;5.99;100.00;99690.90;109202;1254;75801;-80
2023/12/01 10:29:38;;;;;;;14.40;8.00;;;;;;;6.04;100.00;99697.73;109394;1254;62397;-76
2023/12/01 10:32:11;;;;;;;10.00;7.90;;;;;;;6.10;100.00;99694.48;109371;1254;73574;-77
2023/12/01 10:34:38;;;;;;;13.50;9.50;;;;;;;6.16;100.00;99692.89;109409;1254;60726;-78
2023/12/01 10:37:06;;;;;;;16.00;10.30;;;;;;;6.23;100.00;99694.55;109388;1254;60137;-80
2023/12/01 10:39:37;;;;;;;12.60;9.50;;;;;;;6.31;100.00;99695.15;109335;1254;73634;-80
2023/12/01 10:42:04;;;;;;;12.40;8.30;;;;;;;6.39;100.00;99691.95;109143;1254;62775;-77
2023/12/01 10:44:32;;;;;;;10.50;8.30;;;;;;;6.45;100.00;99687.06;109349;1254;72645;-78
2023/12/01 10:47:00;;;;;;;14.70;9.00;;;;;;;6.51;100.00;99686.92;109207;1254;59859;-80
2023/12/01 10:49:28;;;;;;;14.80;9.20;;;;;;;6.55;100.00;99678.30;109399;1253;59013;-79
2023/12/01 10:51:56;;;;;;;15.50;8.70;;;;;;;6.60;100.00;99677.13;109182;1254;75797;-76
2023/12/01 10:54:26;;;;;;;15.50;9.50;;;;;;;6.64;100.00;99674.15;109484;1253;63506;-79
2023/12/01 10:56:56;;;;;;;14.60;10.00;;;;;;;6.68;100.00;99675.13;109354;1256;74879;-79
2023/12/01 10:59:26;;;;;;;16.10;10.00;;;;;;;6.71;100.00;99673.05;109241;1254;62695;-79
2023/12/01 11:01:54;;;;;;;12.90;9.50;;;;;;;6.73;100.00;99667.72;109389;1254;60350;-80
2023/12/01 11:04:26;;;;;;;12.20;8.60;;;;;;;6.75;100.00;99675.77;109183;1254;72723;-78
2023/12/01 11:07:23;;;;;;;14.80;10.20;;;;;;;6.78;100.00;99675.20;109390;1254;64004;-80
2023/12/01 11:10:09;;;;;;;12.90;9.20;;;;;;;6.83;100.00;99670.95;108975;1260;71226;-79
2023/12/01 11:12:44;;;;;;;14.20;9.40;;;;;;;6.87;100.00;99662.88;108961;1260;59704;-80
2023/12/01 11:15:18;;;;;;;17.80;8.20;;;;;;;6.90;100.00;99657.11;108909;1260;60264;-82